Time;durP1;ratioP1;P1;durP2;ratioP2;P2;SDS_P1;SDS_P2;PMS_P1;PMS_P2;Temp;Humidity;BMP_temperature;BMP_pressure;BME280_temperature;BME280_humidity;BME280_pressure;Samples;Min_cycle;Max_cycle;Signal;HPM_P1;HPM_P2
2024/02/19 00:00:19;;;;;;;0.57;0.57;;;;;;;6.07;100.00;101884.84;5090184;28;20099;-83
2024/02/19 00:02:45;;;;;;;2.50;0.95;;;;;;;6.48;100.00;101970.81;5088414;28;20040;-80
2024/02/19 00:05:10;;;;;;;0.32;0.32;;;;;;;6.04;100.00;101884.72;5097082;28;20055;-82
2024/02/19 00:07:36;;;;;;;0.30;0.30;;;;;;;6.52;100.00;101985.75;5089344;28;20154;-81
2024/02/19 00:10:02;;;;;;;0.88;0.82;;;;;;;6.52;100.00;101994.47;5088483;28;20068;-80
2024/02/19 00:12:27;;;;;;;0.30;0.30;;;;;;;6.41;100.00;101989.63;5089570;28;20024;-78
2024/02/19 00:14:53;;;;;;;2.47;1.13;;;;;;;6.40;100.00;101978.31;5089363;28;20036;-81
2024/02/19 00:17:18;;;;;;;7.78;7.38;;;;;;;5.99;100.00;101895.75;5083320;28;20051;-80
2024/02/19 00:19:44;;;;;;;1.67;1.60;;;;;;;5.76;100.00;101863.47;5059613;28;20039;-77
2024/02/19 00:22:09;;;;;;;0.28;0.28;;;;;;;5.84;100.00;101888.16;5082342;28;20135;-78
2024/02/19 00:24:35;;;;;;;4.60;2.28;;;;;;;5.50;100.00;101860.63;5063129;28;20924;-78
2024/02/19 00:27:02;;;;;;;4.07;3.70;;;;;;;5.62;100.00;101870.69;5077733;28;20063;-79
2024/02/19 00:29:27;;;;;;;0.75;0.75;;;;;;;5.49;100.00;101877.06;5068117;28;20495;-81
2024/02/19 00:31:53;;;;;;;3.20;3.05;;;;;;;5.40;100.00;101887.97;5070335;28;20131;-83
2024/02/19 00:34:20;;;;;;;1.05;1.05;;;;;;;5.88;100.00;101956.06;5069211;28;20403;-79
2024/02/19 00:36:45;;;;;;;1.50;1.40;;;;;;;5.39;100.00;101908.72;5076358;28;20044;-77
2024/02/19 00:39:11;;;;;;;0.80;0.80;;;;;;;5.36;100.00;101904.28;5089132;28;20480;-78
2024/02/19 00:41:36;;;;;;;9.43;6.53;;;;;;;4.81;100.00;101887.00;5083025;28;20048;-78
2024/02/19 00:44:04;;;;;;;4.30;3.60;;;;;;;5.26;100.00;101954.13;5079104;28;20056;-79
2024/02/19 00:46:31;;;;;;;1.73;1.60;;;;;;;5.39;100.00;101948.66;5055561;28;20891;-79
2024/02/19 00:48:57;;;;;;;1.75;1.65;;;;;;;5.22;100.00;101910.53;5086018;28;20044;-80
2024/02/19 00:51:23;;;;;;;0.30;0.30;;;;;;;5.49;100.00;101956.06;5081061;28;20036;-79
2024/02/19 00:53:48;;;;;;;0.50;0.50;;;;;;;4.88;100.00;101869.09;5064581;28;20488;-80
2024/02/19 00:56:14;;;;;;;0.30;0.30;;;;;;;4.96;100.00;101880.72;5081091;28;20068;-80
2024/02/19 00:58:39;;;;;;;0.65;0.65;;;;;;;4.80;100.00;101858.31;5075471;28;20052;-80
2024/02/19 01:01:07;;;;;;;2.05;1.67;;;;;;;5.04;100.00;101963.53;5076893;28;20049;-79
2024/02/19 01:03:35;;;;;;;1.95;1.85;;;;;;;5.08;100.00;101944.66;5080214;28;20051;-80
2024/02/19 01:06:02;;;;;;;0.30;0.30;;;;;;;5.23;100.00;101970.47;5075566;28;20150;-80
2024/02/19 01:08:28;;;;;;;0.30;0.30;;;;;;;4.90;100.00;101916.88;5060950;28;20785;-80
2024/02/19 01:10:54;;;;;;;1.05;1.05;;;;;;;4.94;100.00;101903.16;5076321;28;20073;-80
2024/02/19 01:13:20;;;;;;;0.30;0.30;;;;;;;4.63;100.00;101894.81;5077099;28;20128;-82
2024/02/19 01:15:45;;;;;;;0.30;0.30;;;;;;;4.67;100.00;101863.78;5077503;28;20134;-81
2024/02/19 01:18:12;;;;;;;0.30;0.30;;;;;;;5.16;100.00;101941.50;5056586;28;20140;-82
2024/02/19 01:20:37;;;;;;;0.50;0.50;;;;;;;4.74;100.00;101845.94;5072647;28;20040;-85
2024/02/19 01:23:03;;;;;;;0.30;0.30;;;;;;;5.10;100.00;101925.59;5054469;28;20272;-80
2024/02/19 01:25:28;;;;;;;0.30;0.30;;;;;;;5.25;100.00;101927.22;5073238;28;20048;-82
2024/02/19 01:27:54;;;;;;;0.30;0.30;;;;;;;4.64;100.00;101843.72;5076968;28;20044;-80
2024/02/19 01:30:19;;;;;;;0.30;0.30;;;;;;;4.56;100.00;101894.44;5073825;28;20036;-81
2024/02/19 01:32:45;;;;;;;0.93;0.93;;;;;;;3.99;100.00;101808.56;5075436;28;20044;-78
2024/02/19 01:35:10;;;;;;;1.80;1.70;;;;;;;4.35;100.00;101831.94;5075227;28;20142;-80
2024/02/19 01:37:36;;;;;;;0.28;0.28;;;;;;;4.25;100.00;101898.16;5072170;28;20612;-80
2024/02/19 01:40:09;;;;;;;0.30;0.30;;;;;;;3.96;100.00;101814.47;5074248;28;20275;-77
2024/02/19 01:42:37;;;;;;;0.30;0.30;;;;;;;4.71;100.00;101921.19;5076273;28;20054;-78
2024/02/19 01:45:05;;;;;;;0.45;0.45;;;;;;;4.64;100.00;101898.31;5076635;28;20032;-79
2024/02/19 01:47:31;;;;;;;0.30;0.30;;;;;;;4.07;100.00;101780.34;5058902;28;20169;-83
2024/02/19 01:49:56;;;;;;;0.30;0.30;;;;;;;4.64;100.00;101900.91;5065137;28;20138;-81
2024/02/19 01:52:24;;;;;;;0.30;0.30;;;;;;;4.57;100.00;101917.91;5074591;28;20051;-80
2024/02/19 01:54:50;;;;;;;0.20;0.20;;;;;;;4.57;100.00;101902.31;5060085;28;20052;-82
2024/02/19 01:57:15;;;;;;;0.30;0.30;;;;;;;4.22;100.00;101833.94;5082817;28;20402;-81
2024/02/19 01:59:43;;;;;;;0.28;0.28;;;;;;;4.55;100.00;101885.75;5080274;28;20491;-80
2024/02/19 02:02:09;;;;;;;0.30;0.30;;;;;;;4.67;100.00;101916.66;5069041;28;20056;-81
2024/02/19 02:04:36;;;;;;;0.30;0.30;;;;;;;4.76;100.00;101932.69;5060953;28;20055;-80
2024/02/19 02:07:02;;;;;;;0.40;0.40;;;;;;;4.57;100.00;101896.25;5069885;28;20041;-80
2024/02/19 02:09:30;;;;;;;1.48;1.38;;;;;;;4.82;100.00;101930.41;5078778;28;20047;-81
2024/02/19 02:11:56;;;;;;;0.20;0.20;;;;;;;4.89;100.00;101941.09;5074348;28;20060;-78
2024/02/19 02:14:21;;;;;;;0.40;0.40;;;;;;;4.35;100.00;101869.19;5075392;28;20381;-78
2024/02/19 02:16:48;;;;;;;0.30;0.30;;;;;;;4.82;100.00;101938.22;5062959;28;20077;-80
2024/02/19 02:19:15;;;;;;;0.35;0.35;;;;;;;4.40;100.00;101853.81;5060026;28;20064;-79
2024/02/19 02:21:43;;;;;;;0.30;0.30;;;;;;;4.22;100.00;101836.53;5052541;28;20619;-79
2024/02/19 02:24:09;;;;;;;0.43;0.43;;;;;;;4.76;100.00;101927.50;5073584;28;20063;-79
2024/02/19 02:26:41;;;;;;;0.30;0.30;;;;;;;4.76;100.00;101921.41;5070492;28;20044;-78
2024/02/19 02:29:07;;;;;;;0.30;0.30;;;;;;;4.82;100.00;101909.59;5078586;28;20045;-79
2024/02/19 02:31:33;;;;;;;0.30;0.30;;;;;;;4.94;100.00;101916.19;5060432;28;20044;-79
2024/02/19 02:33:59;;;;;;;0.40;0.40;;;;;;;4.68;100.00;101886.34;5081654;28;20044;-79
2024/02/19 02:36:24;;;;;;;0.30;0.30;;;;;;;4.27;100.00;101815.09;5074926;28;20419;-80
2024/02/19 02:38:50;;;;;;;0.40;0.40;;;;;;;4.16;100.00;101817.16;5077158;28;20063;-79
2024/02/19 02:41:16;;;;;;;0.20;0.20;;;;;;;4.47;100.00;101887.09;5077454;28;20571;-80
2024/02/19 02:43:42;;;;;;;0.20;0.20;;;;;;;4.39;100.00;101870.25;5074034;28;20077;-79
2024/02/19 02:46:08;;;;;;;0.40;0.40;;;;;;;3.84;100.00;101792.19;5084308;28;20130;-81
2024/02/19 02:48:33;;;;;;;0.32;0.32;;;;;;;3.85;100.00;101783.59;5081633;28;21079;-80
2024/02/19 02:51:00;;;;;;;0.30;0.30;;;;;;;4.35;100.00;101886.50;5082115;28;20083;-81
2024/02/19 02:53:26;;;;;;;0.20;0.20;;;;;;;3.69;100.00;101808.78;5088187;28;20044;-81
2024/02/19 02:55:51;;;;;;;0.40;0.40;;;;;;;3.98;100.00;101861.28;5073493;28;20436;-81
2024/02/19 02:58:17;;;;;;;0.40;0.40;;;;;;;4.11;100.00;101892.25;5078641;28;21014;-81
2024/02/19 03:00:42;;;;;;;0.50;0.50;;;;;;;3.79;100.00;101834.41;5084661;28;20044;-84
2024/02/19 03:03:09;;;;;;;0.30;0.30;;;;;;;4.13;100.00;101918.31;5085758;28;20031;-83
2024/02/19 03:05:37;;;;;;;0.35;0.35;;;;;;;3.61;100.00;101814.44;5084876;28;20507;-82
2024/02/19 03:08:03;;;;;;;0.82;0.82;;;;;;;4.21;100.00;101897.13;5080432;28;20082;-80
2024/02/19 03:10:29;;;;;;;0.60;0.60;;;;;;;3.93;100.00;101879.25;5067861;28;20079;-82
2024/02/19 03:12:54;;;;;;;0.20;0.20;;;;;;;4.25;100.00;101924.13;5086625;28;20127;-85
2024/02/19 03:15:20;;;;;;;0.47;0.47;;;;;;;3.67;100.00;101822.50;5081409;28;20055;-83
2024/02/19 03:17:45;;;;;;;0.40;0.40;;;;;;;3.61;100.00;101838.69;5083256;28;20471;-81
2024/02/19 03:20:13;;;;;;;0.30;0.30;;;;;;;4.15;100.00;101919.28;5089568;28;20048;-81
2024/02/19 03:22:42;;;;;;;0.30;0.30;;;;;;;3.94;100.00;101891.41;5071192;28;20542;-82
2024/02/19 03:25:07;;;;;;;0.30;0.30;;;;;;;4.06;100.00;101895.44;5084240;28;20410;-80
2024/02/19 03:27:33;;;;;;;1.10;1.00;;;;;;;4.05;100.00;101915.34;5077610;28;20048;-80
2024/02/19 03:29:59;;;;;;;0.25;0.25;;;;;;;3.93;100.00;101881.84;5087281;28;20031;-80
2024/02/19 03:32:25;;;;;;;0.30;0.30;;;;;;;3.51;100.00;101837.31;5079138;28;20214;-80
2024/02/19 03:34:51;;;;;;;0.30;0.30;;;;;;;3.97;100.00;101916.66;5084304;28;20048;-79
2024/02/19 03:37:17;;;;;;;0.35;0.35;;;;;;;3.47;100.00;101814.59;5085106;28;20417;-79
2024/02/19 03:39:44;;;;;;;0.40;0.40;;;;;;;4.14;100.00;101920.09;5079286;28;20040;-80
2024/02/19 03:42:10;;;;;;;0.63;0.63;;;;;;;3.37;100.00;101820.13;5086322;28;20527;-81
2024/02/19 03:44:36;;;;;;;0.30;0.30;;;;;;;3.70;100.00;101853.81;5083883;28;20043;-79
2024/02/19 03:47:01;;;;;;;0.30;0.30;;;;;;;4.10;100.00;101918.19;5083642;28;20067;-80
2024/02/19 03:49:28;;;;;;;0.45;0.45;;;;;;;4.06;100.00;101911.03;5085537;28;20068;-81
2024/02/19 03:51:54;;;;;;;0.32;0.32;;;;;;;4.10;100.00;101910.38;5074387;28;20135;-81
2024/02/19 03:54:19;;;;;;;0.30;0.30;;;;;;;3.60;100.00;101813.50;5078135;28;20450;-80
2024/02/19 03:56:45;;;;;;;0.50;0.50;;;;;;;3.64;100.00;101812.88;5087098;28;20519;-81
2024/02/19 03:59:10;;;;;;;0.35;0.35;;;;;;;3.57;100.00;101808.19;5074269;28;20654;-81
2024/02/19 04:01:39;;;;;;;0.35;0.35;;;;;;;3.01;100.00;101767.22;5086882;28;20063;-80
2024/02/19 04:04:05;;;;;;;0.45;0.45;;;;;;;3.38;100.00;101798.56;5064882;28;20488;-82
2024/02/19 04:06:31;;;;;;;0.70;0.70;;;;;;;3.79;100.00;101906.19;5072137;28;20114;-82
2024/02/19 04:08:56;;;;;;;0.40;0.40;;;;;;;3.07;100.00;101824.63;5083966;28;20064;-80
2024/02/19 04:11:22;;;;;;;0.30;0.30;;;;;;;2.77;100.00;101783.28;5073051;28;20078;-80
2024/02/19 04:13:47;;;;;;;0.30;0.30;;;;;;;3.31;100.00;101845.75;5077585;28;20123;-79
2024/02/19 04:16:13;;;;;;;0.40;0.40;;;;;;;3.04;100.00;101791.59;5071775;28;20113;-80
2024/02/19 04:18:38;;;;;;;4.85;3.40;;;;;;;3.83;100.00;101902.06;5071557;28;20236;-83
2024/02/19 04:21:04;;;;;;;0.30;0.30;;;;;;;3.94;100.00;101901.81;5087553;28;20110;-82
2024/02/19 04:23:31;;;;;;;0.28;0.28;;;;;;;3.80;100.00;101877.72;5073000;28;20747;-82
2024/02/19 04:25:58;;;;;;;0.30;0.30;;;;;;;3.94;100.00;101868.03;5082926;28;20067;-81
2024/02/19 04:28:24;;;;;;;0.20;0.20;;;;;;;3.37;100.00;101782.13;5076844;28;20048;-83
2024/02/19 04:30:49;;;;;;;0.30;0.30;;;;;;;3.65;100.00;101805.97;5079735;28;20074;-82
2024/02/19 04:33:15;;;;;;;0.32;0.32;;;;;;;3.30;100.00;101735.94;5081889;28;20075;-83
2024/02/19 04:35:40;;;;;;;0.32;0.32;;;;;;;3.21;100.00;101708.59;5086372;28;20338;-80
2024/02/19 04:38:06;;;;;;;0.30;0.30;;;;;;;3.51;100.00;101793.19;5082356;28;20040;-80
2024/02/19 04:40:31;;;;;;;0.30;0.30;;;;;;;3.28;100.00;101749.63;5085796;28;20051;-81
2024/02/19 04:42:57;;;;;;;0.30;0.30;;;;;;;4.12;100.00;101869.75;5085820;28;20120;-82
2024/02/19 04:45:23;;;;;;;0.40;0.40;;;;;;;4.05;100.00;101865.09;5069314;28;20061;-83
2024/02/19 04:47:48;;;;;;;0.30;0.30;;;;;;;3.55;100.00;101765.69;5078946;28;20032;-83
2024/02/19 04:50:15;;;;;;;0.40;0.40;;;;;;;3.92;100.00;101861.00;5076031;28;20045;-82
2024/02/19 04:52:40;;;;;;;1.38;0.85;;;;;;;3.44;100.00;101759.06;5072533;28;20055;-80
2024/02/19 04:55:06;;;;;;;0.20;0.20;;;;;;;3.04;100.00;101752.72;5084466;28;20418;-82
2024/02/19 04:57:31;;;;;;;0.68;0.68;;;;;;;2.98;100.00;101769.69;5063639;28;20240;-83
2024/02/19 04:59:57;;;;;;;0.30;0.30;;;;;;;3.09;100.00;101826.47;5065652;28;20039;-85
2024/02/19 05:02:22;;;;;;;0.30;0.30;;;;;;;3.72;100.00;101854.78;5065510;28;20101;-85
2024/02/19 05:04:48;;;;;;;0.30;0.30;;;;;;;3.95;100.00;101854.22;5064469;28;20409;-85
2024/02/19 05:07:15;;;;;;;0.40;0.40;;;;;;;3.66;100.00;101842.38;5079666;28;20376;-85
2024/02/19 05:09:41;;;;;;;0.40;0.40;;;;;;;3.36;100.00;101790.69;5046898;28;20067;-81
2024/02/19 05:12:06;;;;;;;0.20;0.20;;;;;;;3.64;100.00;101854.41;5070858;28;20064;-81
2024/02/19 05:14:32;;;;;;;0.20;0.20;;;;;;;3.26;100.00;101770.28;5068911;28;20381;-80
2024/02/19 05:16:57;;;;;;;0.30;0.30;;;;;;;3.88;100.00;101896.28;5077832;28;20459;-85
2024/02/19 05:19:23;;;;;;;0.30;0.30;;;;;;;3.66;100.00;101870.94;5079072;28;20044;-85
2024/02/19 05:21:48;;;;;;;0.57;0.57;;;;;;;3.23;100.00;101872.97;5079716;28;20168;-85
2024/02/19 05:24:16;;;;;;;0.20;0.20;;;;;;;3.65;100.00;101905.47;5070492;28;20044;-82
2024/02/19 05:26:42;;;;;;;0.60;0.60;;;;;;;3.10;100.00;101898.25;5059820;28;20066;-86
2024/02/19 05:29:08;;;;;;;1.25;1.25;;;;;;;2.98;100.00;101897.59;5074385;28;20048;-84
2024/02/19 05:31:36;;;;;;;0.52;0.52;;;;;;;3.01;100.00;101863.16;5062255;28;20639;-85
2024/02/19 05:34:03;;;;;;;0.40;0.40;;;;;;;2.58;100.00;101771.03;5077627;28;20057;-82
2024/02/19 05:36:29;;;;;;;0.50;0.50;;;;;;;2.99;100.00;101833.66;5077191;28;20082;-84
2024/02/19 05:38:55;;;;;;;0.30;0.30;;;;;;;2.87;100.00;101785.53;5081029;28;20475;-85
2024/02/19 05:41:21;;;;;;;0.35;0.35;;;;;;;3.79;100.00;101894.13;5077287;28;20145;-86
2024/02/19 05:43:47;;;;;;;0.30;0.30;;;;;;;2.57;100.00;101791.66;5057912;28;20495;-81
2024/02/19 05:46:16;;;;;;;1.17;1.08;;;;;;;3.44;100.00;101887.09;5077718;28;20131;-83
2024/02/19 05:48:42;;;;;;;0.40;0.40;;;;;;;3.64;100.00;101879.47;5077202;28;20081;-81
2024/02/19 05:51:08;;;;;;;0.30;0.30;;;;;;;3.17;100.00;101790.56;5088285;28;20081;-82
2024/02/19 05:53:34;;;;;;;0.43;0.43;;;;;;;3.71;100.00;101890.22;5062066;28;20047;-81
2024/02/19 05:56:00;;;;;;;0.40;0.40;;;;;;;3.53;100.00;101848.63;5073862;28;20076;-81
2024/02/19 05:58:26;;;;;;;0.38;0.38;;;;;;;3.36;100.00;101787.22;5080440;28;20036;-81
2024/02/19 06:00:52;;;;;;;2.50;2.40;;;;;;;3.40;100.00;101816.81;5073200;28;20390;-83
2024/02/19 06:03:17;;;;;;;0.30;0.30;;;;;;;3.97;100.00;101898.47;5057473;28;20031;-81
2024/02/19 06:05:43;;;;;;;0.60;0.60;;;;;;;3.82;100.00;101896.00;5080628;28;20384;-81
2024/02/19 06:08:08;;;;;;;0.85;0.85;;;;;;;3.29;100.00;101875.91;5074162;28;20043;-80
2024/02/19 06:10:34;;;;;;;0.30;0.30;;;;;;;3.12;100.00;101908.72;5069774;28;20131;-78
2024/02/19 06:12:59;;;;;;;0.32;0.32;;;;;;;2.55;100.00;101796.75;5075481;28;20124;-77
2024/02/19 06:15:27;;;;;;;0.20;0.20;;;;;;;3.14;100.00;101912.31;5072838;28;20677;-82
2024/02/19 06:17:53;;;;;;;2.47;2.33;;;;;;;2.60;100.00;101818.66;5068079;28;20071;-81
2024/02/19 06:20:18;;;;;;;0.75;0.75;;;;;;;3.58;100.00;101916.34;5058419;28;20044;-77
2024/02/19 06:22:44;;;;;;;1.58;1.52;;;;;;;3.16;100.00;101918.44;5065441;28;20061;-85
2024/02/19 06:25:11;;;;;;;0.40;0.40;;;;;;;2.89;100.00;101796.00;5076287;28;20488;-78
2024/02/19 06:27:37;;;;;;;0.40;0.40;;;;;;;3.45;100.00;101893.19;5071571;28;20064;-80
2024/02/19 06:30:03;;;;;;;0.82;0.82;;;;;;;3.29;100.00;101804.16;5074246;28;20036;-81
2024/02/19 06:32:28;;;;;;;0.20;0.20;;;;;;;3.98;100.00;101892.44;5087621;28;20073;-78
2024/02/19 06:34:54;;;;;;;0.30;0.30;;;;;;;4.03;100.00;101906.59;5079610;28;20074;-82
2024/02/19 06:37:20;;;;;;;0.35;0.35;;;;;;;3.85;100.00;101866.69;5060105;28;20055;-81
2024/02/19 06:39:45;;;;;;;2.60;2.42;;;;;;;4.18;100.00;101898.66;5060516;28;20487;-82
2024/02/19 06:42:11;;;;;;;0.50;0.40;;;;;;;3.12;100.00;101795.50;5076203;28;20028;-83
2024/02/19 06:44:36;;;;;;;0.30;0.30;;;;;;;4.27;100.00;101904.31;5068993;28;20527;-82
2024/02/19 06:47:02;;;;;;;0.30;0.30;;;;;;;3.62;100.00;101896.66;5076012;28;20080;-81
2024/02/19 06:49:28;;;;;;;0.38;0.38;;;;;;;3.99;100.00;101863.09;5063577;28;20045;-85
2024/02/19 06:51:53;;;;;;;1.35;1.33;;;;;;;4.26;100.00;101906.81;5057137;28;20492;-77
2024/02/19 06:54:19;;;;;;;0.50;0.50;;;;;;;3.76;100.00;101815.19;5077285;28;20036;-77
2024/02/19 06:56:45;;;;;;;0.32;0.32;;;;;;;3.98;100.00;101879.47;5078040;28;20040;-77
2024/02/19 06:59:11;;;;;;;0.30;0.30;;;;;;;4.24;100.00;101891.19;5075158;28;20782;-79
2024/02/19 07:01:38;;;;;;;0.32;0.32;;;;;;;4.37;100.00;101916.06;5070644;28;20055;-79
2024/02/19 07:04:05;;;;;;;0.45;0.45;;;;;;;4.11;100.00;101881.88;5071977;28;20126;-78
2024/02/19 07:06:31;;;;;;;0.60;0.60;;;;;;;3.72;100.00;101801.19;5071597;28;20086;-78
2024/02/19 07:08:57;;;;;;;0.35;0.35;;;;;;;3.52;100.00;101825.22;5058327;28;20510;-77
2024/02/19 07:11:23;;;;;;;1.23;1.23;;;;;;;3.66;100.00;101912.47;5078279;28;20044;-78
2024/02/19 07:13:51;;;;;;;0.55;0.43;;;;;;;4.32;100.00;101907.13;5071278;28;20044;-77
2024/02/19 07:16:17;;;;;;;1.00;1.00;;;;;;;3.92;100.00;101820.34;5077731;28;20045;-76
2024/02/19 07:18:42;;;;;;;0.40;0.40;;;;;;;4.57;100.00;101901.44;5065247;28;20466;-78
2024/02/19 07:21:08;;;;;;;0.50;0.50;;;;;;;4.27;100.00;101812.50;5081313;28;20028;-78
2024/02/19 07:23:33;;;;;;;1.60;1.58;;;;;;;5.00;100.00;101900.88;5079663;28;20499;-78
2024/02/19 07:25:59;;;;;;;0.20;0.20;;;;;;;5.10;100.00;101902.19;5080430;28;20090;-77
2024/02/19 07:28:24;;;;;;;0.60;0.60;;;;;;;4.52;100.00;101794.66;5083625;28;20136;-78
2024/02/19 07:30:50;;;;;;;1.02;1.02;;;;;;;3.64;100.00;101799.88;5081485;28;20119;-76
2024/02/19 07:33:16;;;;;;;0.30;0.30;;;;;;;4.26;100.00;101815.88;5084032;28;20055;-78
2024/02/19 07:35:41;;;;;;;0.82;0.82;;;;;;;4.69;100.00;101894.22;5075272;28;20074;-77
2024/02/19 07:38:07;;;;;;;0.32;0.32;;;;;;;3.96;100.00;101897.59;5077388;28;20052;-77
2024/02/19 07:40:32;;;;;;;2.15;1.38;;;;;;;4.06;100.00;101904.13;5081707;28;20098;-78
2024/02/19 07:42:58;;;;;;;27.20;24.17;;;;;;;4.18;100.00;101818.13;5058538;28;20079;-77
2024/02/19 07:45:23;;;;;;;0.40;0.40;;;;;;;4.15;100.00;101901.13;5080236;28;20043;-78
2024/02/19 07:47:50;;;;;;;0.63;0.63;;;;;;;4.22;100.00;101838.25;5073598;28;20031;-78
2024/02/19 07:50:16;;;;;;;0.80;0.80;;;;;;;4.32;100.00;101868.16;5060358;28;20120;-77
2024/02/19 07:52:43;;;;;;;0.63;0.63;;;;;;;4.82;100.00;101893.09;5083323;28;20043;-77
2024/02/19 07:55:09;;;;;;;0.68;0.68;;;;;;;4.27;100.00;101800.38;5083946;28;20062;-78
2024/02/19 07:57:35;;;;;;;0.35;0.35;;;;;;;4.89;100.00;101870.84;5075370;28;20044;-76
2024/02/19 08:00:01;;;;;;;0.30;0.30;;;;;;;5.15;100.00;101904.19;5063913;28;20642;-77
2024/02/19 08:02:26;;;;;;;0.32;0.32;;;;;;;4.96;100.00;101868.59;5084112;28;20070;-79
2024/02/19 08:04:52;;;;;;;0.20;0.20;;;;;;;5.08;100.00;101848.38;5063884;28;20147;-77
2024/02/19 08:07:18;;;;;;;0.30;0.30;;;;;;;5.18;100.00;101828.88;5079313;28;20569;-77
2024/02/19 08:09:44;;;;;;;0.30;0.30;;;;;;;5.62;100.00;101879.41;5069209;28;20592;-77
2024/02/19 08:12:10;;;;;;;0.30;0.30;;;;;;;5.55;100.00;101889.47;5079135;28;20028;-77
2024/02/19 08:14:35;;;;;;;0.30;0.30;;;;;;;4.46;100.00;101716.38;5079457;28;20139;-77
2024/02/19 08:17:01;;;;;;;0.30;0.30;;;;;;;5.00;100.00;101766.50;5079844;28;20106;-77
2024/02/19 08:19:27;;;;;;;0.73;0.60;;;;;;;5.98;100.00;101883.56;5084041;28;20131;-78
2024/02/19 08:21:53;;;;;;;0.85;0.85;;;;;;;5.89;100.00;101873.59;5080989;28;20517;-79
2024/02/19 08:24:19;;;;;;;0.30;0.30;;;;;;;5.59;100.00;101777.72;5082820;28;20035;-77
2024/02/19 08:26:44;;;;;;;0.35;0.35;;;;;;;5.61;100.00;101809.91;5074240;28;20478;-76
2024/02/19 08:29:10;;;;;;;0.30;0.30;;;;;;;6.38;100.00;101891.31;5063130;28;20093;-78
2024/02/19 08:31:37;;;;;;;0.30;0.30;;;;;;;5.39;100.00;101776.00;5083956;28;20062;-77
2024/02/19 08:34:03;;;;;;;0.30;0.30;;;;;;;6.00;100.00;101791.59;5078415;28;20041;-78
2024/02/19 08:36:28;;;;;;;0.30;0.30;;;;;;;6.38;100.00;101878.28;5080212;28;20040;-79
2024/02/19 08:38:55;;;;;;;0.30;0.30;;;;;;;6.02;100.00;101773.44;5082884;28;20122;-78
2024/02/19 08:41:21;;;;;;;0.30;0.30;;;;;;;5.52;100.00;101864.19;5084218;28;20640;-78
2024/02/19 08:43:47;;;;;;;0.30;0.30;;;;;;;5.30;100.00;101766.06;5078696;28;20058;-76
2024/02/19 08:46:14;;;;;;;1.05;0.95;;;;;;;6.05;100.00;101810.91;5076091;28;20078;-77
2024/02/19 08:48:39;;;;;;;0.40;0.40;;;;;;;6.22;100.00;101855.91;5076919;28;20191;-77
2024/02/19 08:51:05;;;;;;;0.22;0.22;;;;;;;5.19;100.00;101762.97;5081187;28;20573;-77
2024/02/19 08:53:30;;;;;;;2.05;1.95;;;;;;;6.35;100.00;101867.75;5081625;28;20052;-77
2024/02/19 08:55:56;;;;;;;0.73;0.73;;;;;;;6.06;100.00;101758.00;5074785;28;20040;-77
2024/02/19 08:58:22;;;;;;;3.30;3.17;;;;;;;6.35;100.00;101844.28;5064803;28;20548;-78
2024/02/19 09:00:48;;;;;;;0.40;0.40;;;;;;;5.91;100.00;101852.00;5078870;28;20095;-78
2024/02/19 09:03:14;;;;;;;0.30;0.30;;;;;;;6.02;100.00;101803.00;5081939;28;20052;-79
2024/02/19 09:05:39;;;;;;;0.40;0.40;;;;;;;5.90;100.00;101782.50;5074049;28;20033;-77
2024/02/19 09:08:06;;;;;;;0.30;0.30;;;;;;;5.78;100.00;101792.38;5078556;28;20044;-76
2024/02/19 09:10:31;;;;;;;0.40;0.40;;;;;;;6.04;100.00;101775.28;5054429;28;20097;-78
2024/02/19 09:12:58;;;;;;;0.30;0.30;;;;;;;6.44;100.00;101757.69;5061463;28;20044;-78
2024/02/19 09:15:23;;;;;;;2.67;2.17;;;;;;;5.78;100.00;101773.28;5077126;28;20395;-78
2024/02/19 09:17:49;;;;;;;0.30;0.30;;;;;;;6.64;100.00;101837.59;5059291;28;20359;-77
2024/02/19 09:20:16;;;;;;;0.30;0.30;;;;;;;6.88;100.00;101855.94;5079868;28;20048;-77
2024/02/19 09:22:42;;;;;;;0.30;0.30;;;;;;;6.58;100.00;101769.56;5081035;28;20052;-78
2024/02/19 09:25:08;;;;;;;0.30;0.30;;;;;;;6.49;100.00;101751.84;5074993;28;20061;-79
2024/02/19 09:27:33;;;;;;;0.30;0.30;;;;;;;6.74;100.00;101831.94;5077326;28;20082;-80
2024/02/19 09:29:59;;;;;;;0.30;0.30;;;;;;;6.96;100.00;101838.84;5071346;28;20036;-77
2024/02/19 09:32:24;;;;;;;0.57;0.57;;;;;;;6.36;100.00;101869.50;5077510;28;20114;-77
2024/02/19 09:34:50;;;;;;;3.58;3.45;;;;;;;6.59;100.00;101801.75;5073266;28;20040;-77
2024/02/19 09:37:17;;;;;;;0.30;0.30;;;;;;;6.13;100.00;101756.50;5076066;28;20147;-77
2024/02/19 09:39:43;;;;;;;0.77;0.77;;;;;;;6.05;100.00;101766.63;5076549;28;20555;-78
2024/02/19 09:42:09;;;;;;;0.30;0.30;;;;;;;7.25;100.00;101831.19;5072504;28;20137;-78
2024/02/19 09:44:35;;;;;;;0.47;0.47;;;;;;;6.37;100.00;101813.94;5053409;28;20078;-77
2024/02/19 09:47:04;;;;;;;0.47;0.47;;;;;;;7.40;100.00;101850.03;5057492;28;20514;-77
2024/02/19 09:49:32;;;;;;;0.55;0.55;;;;;;;6.84;100.00;101835.75;5077882;28;20059;-77
2024/02/19 09:52:03;;;;;;;0.25;0.25;;;;;;;6.27;100.00;101739.69;5080129;28;20067;-79
2024/02/19 09:54:29;;;;;;;0.20;0.20;;;;;;;7.22;100.00;101762.31;5076351;28;20522;-76
2024/02/19 09:56:56;;;;;;;0.32;0.32;;;;;;;6.88;100.00;101780.28;5061612;28;20123;-77
2024/02/19 09:59:22;;;;;;;0.30;0.30;;;;;;;7.55;100.00;101805.28;5075623;28;20186;-77
2024/02/19 10:01:49;;;;;;;0.30;0.30;;;;;;;7.72;100.00;101784.94;5070771;28;20044;-78
2024/02/19 10:04:15;;;;;;;0.35;0.35;;;;;;;7.08;100.00;101788.81;5060269;28;20523;-79
2024/02/19 10:06:42;;;;;;;2.45;2.25;;;;;;;6.49;100.00;101699.69;5075019;28;20557;-76
2024/02/19 10:09:08;;;;;;;0.40;0.40;;;;;;;7.32;100.00;101706.97;5082201;28;20028;-77
2024/02/19 10:11:35;;;;;;;0.30;0.30;;;;;;;8.19;100.00;101787.34;5071677;28;20495;-77
2024/02/19 10:14:00;;;;;;;0.25;0.25;;;;;;;6.92;100.00;101705.59;5062457;28;20040;-77
2024/02/19 10:16:26;;;;;;;0.30;0.30;;;;;;;6.86;100.00;101716.69;5060697;28;20048;-76
2024/02/19 10:19:02;;;;;;;0.30;0.30;;;;;;;6.41;100.00;101676.78;5073542;28;20044;-79
2024/02/19 10:21:29;;;;;;;0.40;0.40;;;;;;;7.47;100.00;101744.06;5080597;28;20040;-79
2024/02/19 10:23:55;;;;;;;0.60;0.60;;;;;;;7.47;100.00;101649.16;5080507;28;20395;-78
2024/02/19 10:26:21;;;;;;;0.22;0.22;;;;;;;8.03;100.00;101738.94;5077985;28;20510;-76
2024/02/19 10:28:47;;;;;;;0.57;0.57;;;;;;;8.30;100.00;101753.72;5076406;28;20041;-78
2024/02/19 10:31:13;;;;;;;0.22;0.22;;;;;;;8.45;100.00;101749.88;5078304;28;20043;-77
2024/02/19 10:33:41;;;;;;;0.30;0.30;;;;;;;8.05;100.00;101755.53;5064314;28;20055;-78
2024/02/19 10:36:08;;;;;;;0.38;0.38;;;;;;;7.45;100.00;101743.13;5071535;28;20040;-78
2024/02/19 10:38:34;;;;;;;0.20;0.20;;;;;;;7.96;100.00;101709.09;5067518;28;20135;-78
2024/02/19 10:41:00;;;;;;;1.67;1.58;;;;;;;7.42;100.00;101743.00;5062413;28;20571;-78
2024/02/19 10:43:25;;;;;;;0.30;0.30;;;;;;;7.55;100.00;101734.75;5060893;28;20504;-78
2024/02/19 10:45:52;;;;;;;1.65;1.02;;;;;;;8.02;100.00;101641.31;5071096;28;20546;-78
2024/02/19 10:48:18;;;;;;;0.30;0.30;;;;;;;8.04;100.00;101710.22;5056525;28;20595;-79
2024/02/19 10:50:47;;;;;;;0.30;0.30;;;;;;;7.67;100.00;101713.38;5066833;28;20032;-79
2024/02/19 10:53:13;;;;;;;0.20;0.20;;;;;;;9.01;100.00;101702.63;5071974;28;20074;-79
2024/02/19 10:55:42;;;;;;;0.30;0.30;;;;;;;8.46;100.00;101614.75;5062827;28;20765;-78
2024/02/19 10:58:15;;;;;;;0.50;0.50;;;;;;;8.55;100.00;101716.16;5059867;28;20048;-78
2024/02/19 11:00:42;;;;;;;0.85;0.85;;;;;;;9.56;100.00;101704.91;5063293;28;20036;-79
2024/02/19 11:03:09;;;;;;;0.30;0.30;;;;;;;9.98;100.00;101697.19;5072025;28;20028;-78
2024/02/19 11:05:43;;;;;;;0.88;0.88;;;;;;;10.23;100.00;101703.88;5072437;28;20446;-78
2024/02/19 11:08:18;;;;;;;;;;;;;;;9.87;98.95;101691.69;5072004;28;20055;-78
2024/02/19 11:10:47;;;;;;;0.32;0.32;;;;;;;9.69;92.84;101675.50;5057440;28;20376;-77
2024/02/19 11:13:14;;;;;;;0.30;0.30;;;;;;;8.88;98.36;101625.47;5048577;28;20056;-79
2024/02/19 11:15:42;;;;;;;0.60;0.60;;;;;;;8.06;100.00;101615.28;5074258;28;20048;-79
2024/02/19 11:18:17;;;;;;;0.30;0.30;;;;;;;8.77;100.00;101687.09;5070720;28;20078;-76